sensor_id;sensor_type;location;lat;lon;timestamp;temperature;humidity
25188;DHT22;13141;50.414;8.050;2023-05-07T00:00:13;16.70;99.90
25188;DHT22;13141;50.414;8.050;2023-05-07T00:02:38;17.00;99.90
25188;DHT22;13141;50.414;8.050;2023-05-07T00:05:06;17.00;99.90
25188;DHT22;13141;50.414;8.050;2023-05-07T00:07:32;17.00;99.90
25188;DHT22;13141;50.414;8.050;2023-05-07T00:09:58;17.20;99.90
25188;DHT22;13141;50.414;8.050;2023-05-07T00:12:23;17.00;99.90
25188;DHT22;13141;50.414;8.050;2023-05-07T00:14:49;16.90;99.90
25188;DHT22;13141;50.414;8.050;2023-05-07T00:17:14;16.90;99.90
25188;DHT22;13141;50.414;8.050;2023-05-07T00:19:40;16.80;99.90
25188;DHT22;13141;50.414;8.050;2023-05-07T00:22:07;17.00;99.90
25188;DHT22;13141;50.414;8.050;2023-05-07T00:24:33;16.80;99.90
25188;DHT22;13141;50.414;8.050;2023-05-07T00:26:59;16.80;99.90
25188;DHT22;13141;50.414;8.050;2023-05-07T00:29:24;17.00;99.90
25188;DHT22;13141;50.414;8.050;2023-05-07T00:31:50;16.80;99.90
25188;DHT22;13141;50.414;8.050;2023-05-07T00:34:16;16.70;99.90
25188;DHT22;13141;50.414;8.050;2023-05-07T00:36:41;16.70;99.90
25188;DHT22;13141;50.414;8.050;2023-05-07T00:39:08;16.70;99.90
25188;DHT22;13141;50.414;8.050;2023-05-07T00:41:34;16.70;99.90
25188;DHT22;13141;50.414;8.050;2023-05-07T00:43:59;16.70;99.90
25188;DHT22;13141;50.414;8.050;2023-05-07T00:46:25;16.70;99.90
25188;DHT22;13141;50.414;8.050;2023-05-07T00:48:51;16.70;99.90
25188;DHT22;13141;50.414;8.050;2023-05-07T00:51:17;17.00;99.90
25188;DHT22;13141;50.414;8.050;2023-05-07T00:53:43;16.70;99.90
25188;DHT22;13141;50.414;8.050;2023-05-07T00:56:22;16.70;99.90
25188;DHT22;13141;50.414;8.050;2023-05-07T00:59:04;16.70;99.90
25188;DHT22;13141;50.414;8.050;2023-05-07T01:01:33;16.90;99.90
25188;DHT22;13141;50.414;8.050;2023-05-07T01:04:04;16.70;99.90
25188;DHT22;13141;50.414;8.050;2023-05-07T01:06:36;16.70;99.90
25188;DHT22;13141;50.414;8.050;2023-05-07T01:09:08;16.70;99.90
25188;DHT22;13141;50.414;8.050;2023-05-07T01:11:40;16.60;99.90
25188;DHT22;13141;50.414;8.050;2023-05-07T01:14:22;16.80;99.90
25188;DHT22;13141;50.414;8.050;2023-05-07T01:16:49;16.80;99.90
25188;DHT22;13141;50.414;8.050;2023-05-07T01:19:18;16.60;99.90
25188;DHT22;13141;50.414;8.050;2023-05-07T01:21:46;16.80;99.90
25188;DHT22;13141;50.414;8.050;2023-05-07T01:24:17;16.60;99.90
25188;DHT22;13141;50.414;8.050;2023-05-07T01:26:46;16.80;99.90
25188;DHT22;13141;50.414;8.050;2023-05-07T01:29:13;16.60;99.90
25188;DHT22;13141;50.414;8.050;2023-05-07T01:31:40;16.50;99.90
25188;DHT22;13141;50.414;8.050;2023-05-07T01:34:08;16.50;99.90
25188;DHT22;13141;50.414;8.050;2023-05-07T01:36:39;16.50;99.90
25188;DHT22;13141;50.414;8.050;2023-05-07T01:39:06;16.70;99.90
25188;DHT22;13141;50.414;8.050;2023-05-07T01:41:40;16.50;99.90
25188;DHT22;13141;50.414;8.050;2023-05-07T01:44:08;16.50;99.90
25188;DHT22;13141;50.414;8.050;2023-05-07T01:46:35;16.40;99.90
25188;DHT22;13141;50.414;8.050;2023-05-07T01:49:03;16.50;99.90
25188;DHT22;13141;50.414;8.050;2023-05-07T01:51:33;16.60;99.90
25188;DHT22;13141;50.414;8.050;2023-05-07T01:54:01;16.60;99.90
25188;DHT22;13141;50.414;8.050;2023-05-07T01:56:32;16.50;99.90
25188;DHT22;13141;50.414;8.050;2023-05-07T01:59:02;16.40;99.90
25188;DHT22;13141;50.414;8.050;2023-05-07T02:01:30;16.50;99.90
25188;DHT22;13141;50.414;8.050;2023-05-07T02:03:58;16.50;99.90
25188;DHT22;13141;50.414;8.050;2023-05-07T02:06:31;16.50;99.90
25188;DHT22;13141;50.414;8.050;2023-05-07T02:08:58;16.50;99.90
25188;DHT22;13141;50.414;8.050;2023-05-07T02:11:24;16.50;99.90
25188;DHT22;13141;50.414;8.050;2023-05-07T02:13:50;16.50;99.90
25188;DHT22;13141;50.414;8.050;2023-05-07T02:16:20;16.40;99.90
25188;DHT22;13141;50.414;8.050;2023-05-07T02:18:46;16.60;99.90
25188;DHT22;13141;50.414;8.050;2023-05-07T02:21:16;16.40;99.90
25188;DHT22;13141;50.414;8.050;2023-05-07T02:23:47;16.60;99.90
25188;DHT22;13141;50.414;8.050;2023-05-07T02:26:15;16.30;99.90
25188;DHT22;13141;50.414;8.050;2023-05-07T02:28:41;16.30;99.90
25188;DHT22;13141;50.414;8.050;2023-05-07T02:31:15;16.30;99.90
25188;DHT22;13141;50.414;8.050;2023-05-07T02:33:46;16.30;99.90
25188;DHT22;13141;50.414;8.050;2023-05-07T02:36:12;16.40;99.90
25188;DHT22;13141;50.414;8.050;2023-05-07T02:38:38;16.30;99.90
25188;DHT22;13141;50.414;8.050;2023-05-07T02:41:04;16.30;99.90
25188;DHT22;13141;50.414;8.050;2023-05-07T02:43:36;16.30;99.90
25188;DHT22;13141;50.414;8.050;2023-05-07T02:46:02;16.50;99.90
25188;DHT22;13141;50.414;8.050;2023-05-07T02:48:28;16.30;99.90
25188;DHT22;13141;50.414;8.050;2023-05-07T02:50:55;16.30;99.90
25188;DHT22;13141;50.414;8.050;2023-05-07T02:53:21;16.30;99.90
25188;DHT22;13141;50.414;8.050;2023-05-07T02:55:47;16.40;99.90
25188;DHT22;13141;50.414;8.050;2023-05-07T02:58:14;16.40;99.90
25188;DHT22;13141;50.414;8.050;2023-05-07T03:00:54;16.20;99.90
25188;DHT22;13141;50.414;8.050;2023-05-07T03:03:23;16.20;99.90
25188;DHT22;13141;50.414;8.050;2023-05-07T03:05:49;16.20;99.90
25188;DHT22;13141;50.414;8.050;2023-05-07T03:11:19;16.50;99.90
25188;DHT22;13141;50.414;8.050;2023-05-07T03:13:47;16.40;99.90
25188;DHT22;13141;50.414;8.050;2023-05-07T03:16:13;16.20;99.90
25188;DHT22;13141;50.414;8.050;2023-05-07T03:18:40;16.10;99.90
25188;DHT22;13141;50.414;8.050;2023-05-07T03:21:09;16.30;99.90
25188;DHT22;13141;50.414;8.050;2023-05-07T03:23:36;16.10;99.90
25188;DHT22;13141;50.414;8.050;2023-05-07T03:44:32;15.80;99.90
25188;DHT22;13141;50.414;8.050;2023-05-07T03:46:57;16.10;99.90
25188;DHT22;13141;50.414;8.050;2023-05-07T03:49:23;16.20;99.90
25188;DHT22;13141;50.414;8.050;2023-05-07T03:51:49;16.10;99.90
25188;DHT22;13141;50.414;8.050;2023-05-07T03:54:15;16.10;99.90
25188;DHT22;13141;50.414;8.050;2023-05-07T03:56:40;16.10;99.90
25188;DHT22;13141;50.414;8.050;2023-05-07T03:59:06;16.10;99.90
25188;DHT22;13141;50.414;8.050;2023-05-07T04:01:33;16.00;99.90
25188;DHT22;13141;50.414;8.050;2023-05-07T04:03:59;16.00;99.90
25188;DHT22;13141;50.414;8.050;2023-05-07T04:06:25;15.90;99.90
25188;DHT22;13141;50.414;8.050;2023-05-07T04:08:50;15.90;99.90
25188;DHT22;13141;50.414;8.050;2023-05-07T04:11:16;15.90;99.90
25188;DHT22;13141;50.414;8.050;2023-05-07T04:13:42;15.90;99.90
25188;DHT22;13141;50.414;8.050;2023-05-07T04:16:08;15.90;99.90
25188;DHT22;13141;50.414;8.050;2023-05-07T04:18:35;15.90;99.90
25188;DHT22;13141;50.414;8.050;2023-05-07T04:21:00;16.00;99.90
25188;DHT22;13141;50.414;8.050;2023-05-07T04:23:26;16.00;99.90
25188;DHT22;13141;50.414;8.050;2023-05-07T04:25:52;16.00;99.90
25188;DHT22;13141;50.414;8.050;2023-05-07T04:28:18;15.90;99.90
25188;DHT22;13141;50.414;8.050;2023-05-07T04:30:43;16.00;99.90
25188;DHT22;13141;50.414;8.050;2023-05-07T04:33:09;16.00;99.90
25188;DHT22;13141;50.414;8.050;2023-05-07T04:35:36;16.10;99.90
25188;DHT22;13141;50.414;8.050;2023-05-07T04:38:02;16.10;99.90
25188;DHT22;13141;50.414;8.050;2023-05-07T04:40:28;16.00;99.90
25188;DHT22;13141;50.414;8.050;2023-05-07T04:42:53;16.00;99.90
25188;DHT22;13141;50.414;8.050;2023-05-07T04:45:19;16.00;99.90
25188;DHT22;13141;50.414;8.050;2023-05-07T04:47:45;16.10;99.90
25188;DHT22;13141;50.414;8.050;2023-05-07T04:50:11;16.10;99.90
25188;DHT22;13141;50.414;8.050;2023-05-07T04:52:38;16.10;99.90
25188;DHT22;13141;50.414;8.050;2023-05-07T04:55:04;16.10;99.90
25188;DHT22;13141;50.414;8.050;2023-05-07T04:57:30;16.10;99.90
25188;DHT22;13141;50.414;8.050;2023-05-07T04:59:56;16.10;99.90
25188;DHT22;13141;50.414;8.050;2023-05-07T05:02:22;16.10;99.90
25188;DHT22;13141;50.414;8.050;2023-05-07T05:04:48;16.10;99.90
25188;DHT22;13141;50.414;8.050;2023-05-07T05:07:13;16.20;99.90
25188;DHT22;13141;50.414;8.050;2023-05-07T05:09:40;16.20;99.90
25188;DHT22;13141;50.414;8.050;2023-05-07T05:12:06;16.10;99.90
25188;DHT22;13141;50.414;8.050;2023-05-07T05:14:32;16.10;99.90
25188;DHT22;13141;50.414;8.050;2023-05-07T05:16:57;16.20;99.90
25188;DHT22;13141;50.414;8.050;2023-05-07T05:19:23;16.20;99.90
25188;DHT22;13141;50.414;8.050;2023-05-07T05:21:49;16.20;99.90
25188;DHT22;13141;50.414;8.050;2023-05-07T05:24:14;16.30;99.90
25188;DHT22;13141;50.414;8.050;2023-05-07T05:26:41;16.30;99.90
25188;DHT22;13141;50.414;8.050;2023-05-07T05:29:07;16.30;99.90
25188;DHT22;13141;50.414;8.050;2023-05-07T05:31:32;16.40;99.90
25188;DHT22;13141;50.414;8.050;2023-05-07T05:33:58;16.40;99.90
25188;DHT22;13141;50.414;8.050;2023-05-07T05:36:24;16.40;99.90
25188;DHT22;13141;50.414;8.050;2023-05-07T05:38:49;16.40;99.90
25188;DHT22;13141;50.414;8.050;2023-05-07T05:41:15;16.40;99.90
25188;DHT22;13141;50.414;8.050;2023-05-07T05:43:42;16.50;99.90
25188;DHT22;13141;50.414;8.050;2023-05-07T05:46:08;16.50;99.90
25188;DHT22;13141;50.414;8.050;2023-05-07T05:48:33;16.50;99.90
25188;DHT22;13141;50.414;8.050;2023-05-07T05:51:00;16.60;99.90
25188;DHT22;13141;50.414;8.050;2023-05-07T05:53:25;16.70;99.90
25188;DHT22;13141;50.414;8.050;2023-05-07T05:55:51;16.80;99.90
25188;DHT22;13141;50.414;8.050;2023-05-07T05:58:17;16.80;99.90
25188;DHT22;13141;50.414;8.050;2023-05-07T06:00:44;16.50;99.90
25188;DHT22;13141;50.414;8.050;2023-05-07T06:03:10;16.90;99.90
25188;DHT22;13141;50.414;8.050;2023-05-07T06:05:35;16.90;99.90
25188;DHT22;13141;50.414;8.050;2023-05-07T06:08:01;16.90;99.90
25188;DHT22;13141;50.414;8.050;2023-05-07T06:10:27;17.00;99.90
25188;DHT22;13141;50.414;8.050;2023-05-07T06:12:52;17.10;99.90
25188;DHT22;13141;50.414;8.050;2023-05-07T06:15:18;17.10;99.90
25188;DHT22;13141;50.414;8.050;2023-05-07T06:17:45;17.10;99.90
25188;DHT22;13141;50.414;8.050;2023-05-07T06:20:11;17.20;99.90
25188;DHT22;13141;50.414;8.050;2023-05-07T06:22:36;17.20;99.90
25188;DHT22;13141;50.414;8.050;2023-05-07T06:25:02;17.30;99.90
25188;DHT22;13141;50.414;8.050;2023-05-07T06:27:28;17.30;99.90
25188;DHT22;13141;50.414;8.050;2023-05-07T06:29:53;17.30;99.90
25188;DHT22;13141;50.414;8.050;2023-05-07T06:32:19;17.40;99.90
25188;DHT22;13141;50.414;8.050;2023-05-07T06:34:46;17.40;99.90
25188;DHT22;13141;50.414;8.050;2023-05-07T06:37:12;17.30;99.90
25188;DHT22;13141;50.414;8.050;2023-05-07T06:39:37;17.40;99.90
25188;DHT22;13141;50.414;8.050;2023-05-07T06:42:03;17.50;99.90
25188;DHT22;13141;50.414;8.050;2023-05-07T06:44:29;17.60;99.90
25188;DHT22;13141;50.414;8.050;2023-05-07T06:46:55;17.60;99.90
25188;DHT22;13141;50.414;8.050;2023-05-07T06:49:20;17.70;99.90
25188;DHT22;13141;50.414;8.050;2023-05-07T06:51:47;17.80;99.90
25188;DHT22;13141;50.414;8.050;2023-05-07T06:54:13;17.90;99.90
25188;DHT22;13141;50.414;8.050;2023-05-07T06:56:38;17.90;99.90
25188;DHT22;13141;50.414;8.050;2023-05-07T06:59:04;18.00;99.90
25188;DHT22;13141;50.414;8.050;2023-05-07T07:01:30;18.00;99.90
25188;DHT22;13141;50.414;8.050;2023-05-07T07:03:55;18.10;99.90
25188;DHT22;13141;50.414;8.050;2023-05-07T07:06:21;18.10;99.90
25188;DHT22;13141;50.414;8.050;2023-05-07T07:08:48;18.30;99.90
25188;DHT22;13141;50.414;8.050;2023-05-07T07:11:14;18.30;99.90
25188;DHT22;13141;50.414;8.050;2023-05-07T07:13:40;18.50;99.90
25188;DHT22;13141;50.414;8.050;2023-05-07T07:16:06;18.70;99.90
25188;DHT22;13141;50.414;8.050;2023-05-07T07:18:32;18.90;99.90
25188;DHT22;13141;50.414;8.050;2023-05-07T07:20:57;19.10;99.90
25188;DHT22;13141;50.414;8.050;2023-05-07T07:23:23;19.20;99.90
25188;DHT22;13141;50.414;8.050;2023-05-07T07:25:51;19.30;99.90
25188;DHT22;13141;50.414;8.050;2023-05-07T07:28:17;19.50;99.90
25188;DHT22;13141;50.414;8.050;2023-05-07T07:30:43;19.50;99.90
25188;DHT22;13141;50.414;8.050;2023-05-07T07:33:09;19.60;99.90
25188;DHT22;13141;50.414;8.050;2023-05-07T07:35:34;19.70;99.90
25188;DHT22;13141;50.414;8.050;2023-05-07T07:38:00;19.80;99.90
25188;DHT22;13141;50.414;8.050;2023-05-07T07:40:26;19.80;99.90
25188;DHT22;13141;50.414;8.050;2023-05-07T07:42:54;19.80;99.90
25188;DHT22;13141;50.414;8.050;2023-05-07T07:45:20;19.90;99.90
25188;DHT22;13141;50.414;8.050;2023-05-07T07:47:46;20.00;99.90
25188;DHT22;13141;50.414;8.050;2023-05-07T07:50:12;20.10;99.90
25188;DHT22;13141;50.414;8.050;2023-05-07T07:52:37;20.20;99.90
25188;DHT22;13141;50.414;8.050;2023-05-07T07:55:04;20.30;99.90
25188;DHT22;13141;50.414;8.050;2023-05-07T07:57:30;20.30;99.90
25188;DHT22;13141;50.414;8.050;2023-05-07T07:59:57;20.40;99.90
25188;DHT22;13141;50.414;8.050;2023-05-07T08:02:23;20.40;99.90
25188;DHT22;13141;50.414;8.050;2023-05-07T08:04:50;20.50;99.90
25188;DHT22;13141;50.414;8.050;2023-05-07T08:07:16;20.70;99.90
25188;DHT22;13141;50.414;8.050;2023-05-07T08:09:41;20.90;99.90
25188;DHT22;13141;50.414;8.050;2023-05-07T08:12:07;20.90;99.90
25188;DHT22;13141;50.414;8.050;2023-05-07T08:14:33;21.10;99.90
25188;DHT22;13141;50.414;8.050;2023-05-07T08:17:00;21.20;99.90
25188;DHT22;13141;50.414;8.050;2023-05-07T08:19:26;21.40;99.90
25188;DHT22;13141;50.414;8.050;2023-05-07T08:21:52;21.40;99.90
25188;DHT22;13141;50.414;8.050;2023-05-07T08:24:18;21.40;99.90
25188;DHT22;13141;50.414;8.050;2023-05-07T08:26:43;21.40;99.90
25188;DHT22;13141;50.414;8.050;2023-05-07T08:29:10;21.40;99.90
25188;DHT22;13141;50.414;8.050;2023-05-07T08:31:36;21.40;99.90
25188;DHT22;13141;50.414;8.050;2023-05-07T08:34:03;21.40;99.90
25188;DHT22;13141;50.414;8.050;2023-05-07T08:36:29;21.50;99.90
25188;DHT22;13141;50.414;8.050;2023-05-07T08:38:55;21.50;99.90
25188;DHT22;13141;50.414;8.050;2023-05-07T08:41:20;21.60;99.90
25188;DHT22;13141;50.414;8.050;2023-05-07T08:43:49;21.70;99.90
25188;DHT22;13141;50.414;8.050;2023-05-07T08:46:17;21.90;99.90
25188;DHT22;13141;50.414;8.050;2023-05-07T08:48:43;22.10;99.90
25188;DHT22;13141;50.414;8.050;2023-05-07T08:51:12;22.20;99.90
25188;DHT22;13141;50.414;8.050;2023-05-07T08:53:40;22.30;99.90
25188;DHT22;13141;50.414;8.050;2023-05-07T08:56:07;22.30;99.90
25188;DHT22;13141;50.414;8.050;2023-05-07T08:58:33;22.30;99.90
25188;DHT22;13141;50.414;8.050;2023-05-07T09:01:00;22.40;99.90
25188;DHT22;13141;50.414;8.050;2023-05-07T09:03:27;22.50;99.90
25188;DHT22;13141;50.414;8.050;2023-05-07T09:05:53;22.70;99.90
25188;DHT22;13141;50.414;8.050;2023-05-07T09:08:24;23.10;99.90
25188;DHT22;13141;50.414;8.050;2023-05-07T09:10:51;23.50;99.90
25188;DHT22;13141;50.414;8.050;2023-05-07T09:13:17;23.70;99.90
25188;DHT22;13141;50.414;8.050;2023-05-07T09:15:43;24.10;99.90
25188;DHT22;13141;50.414;8.050;2023-05-07T09:18:09;24.50;99.90
25188;DHT22;13141;50.414;8.050;2023-05-07T09:20:36;24.70;99.90
25188;DHT22;13141;50.414;8.050;2023-05-07T09:23:02;24.80;99.90
25188;DHT22;13141;50.414;8.050;2023-05-07T09:25:30;24.70;99.90
25188;DHT22;13141;50.414;8.050;2023-05-07T09:27:56;24.50;99.90
25188;DHT22;13141;50.414;8.050;2023-05-07T09:30:22;24.40;99.90
25188;DHT22;13141;50.414;8.050;2023-05-07T09:32:48;24.30;99.90
25188;DHT22;13141;50.414;8.050;2023-05-07T09:35:17;24.30;99.90
25188;DHT22;13141;50.414;8.050;2023-05-07T09:37:43;24.80;99.90
25188;DHT22;13141;50.414;8.050;2023-05-07T09:40:20;25.10;99.90
25188;DHT22;13141;50.414;8.050;2023-05-07T09:42:48;25.40;99.90
25188;DHT22;13141;50.414;8.050;2023-05-07T09:45:14;25.60;99.90
25188;DHT22;13141;50.414;8.050;2023-05-07T09:47:42;25.70;99.90
25188;DHT22;13141;50.414;8.050;2023-05-07T09:50:10;25.80;99.90
25188;DHT22;13141;50.414;8.050;2023-05-07T09:52:36;25.90;99.90
25188;DHT22;13141;50.414;8.050;2023-05-07T09:55:03;26.10;99.90
25188;DHT22;13141;50.414;8.050;2023-05-07T09:57:29;26.10;99.90
25188;DHT22;13141;50.414;8.050;2023-05-07T09:59:58;26.50;99.90
25188;DHT22;13141;50.414;8.050;2023-05-07T10:02:26;26.70;99.90
25188;DHT22;13141;50.414;8.050;2023-05-07T10:04:54;26.90;99.90
25188;DHT22;13141;50.414;8.050;2023-05-07T10:07:21;27.00;99.90
25188;DHT22;13141;50.414;8.050;2023-05-07T10:09:49;26.80;99.90
25188;DHT22;13141;50.414;8.050;2023-05-07T10:12:15;26.70;99.80
25188;DHT22;13141;50.414;8.050;2023-05-07T10:14:43;26.70;99.90
25188;DHT22;13141;50.414;8.050;2023-05-07T10:17:12;27.20;99.70
25188;DHT22;13141;50.414;8.050;2023-05-07T10:19:39;27.70;99.90
25188;DHT22;13141;50.414;8.050;2023-05-07T10:22:06;27.90;99.80
25188;DHT22;13141;50.414;8.050;2023-05-07T10:24:33;28.10;99.40
25188;DHT22;13141;50.414;8.050;2023-05-07T10:26:59;28.30;98.50
25188;DHT22;13141;50.414;8.050;2023-05-07T10:29:33;28.30;99.80
25188;DHT22;13141;50.414;8.050;2023-05-07T10:32:25;28.50;98.20
25188;DHT22;13141;50.414;8.050;2023-05-07T10:34:56;28.40;97.50
25188;DHT22;13141;50.414;8.050;2023-05-07T10:37:23;28.50;98.00
25188;DHT22;13141;50.414;8.050;2023-05-07T10:39:49;28.60;97.40
25188;DHT22;13141;50.414;8.050;2023-05-07T10:42:15;28.70;98.20
25188;DHT22;13141;50.414;8.050;2023-05-07T10:44:41;28.90;97.20
25188;DHT22;13141;50.414;8.050;2023-05-07T10:47:08;29.20;98.40
25188;DHT22;13141;50.414;8.050;2023-05-07T10:49:36;29.60;97.30
25188;DHT22;13141;50.414;8.050;2023-05-07T10:52:13;29.80;97.10
25188;DHT22;13141;50.414;8.050;2023-05-07T10:54:39;30.30;96.20
25188;DHT22;13141;50.414;8.050;2023-05-07T10:57:35;30.40;96.70
25188;DHT22;13141;50.414;8.050;2023-05-07T11:00:00;30.40;94.70
25188;DHT22;13141;50.414;8.050;2023-05-07T11:05:28;30.90;94.80
25188;DHT22;13141;50.414;8.050;2023-05-07T11:07:54;31.10;95.60
25188;DHT22;13141;50.414;8.050;2023-05-07T11:10:20;31.20;95.00
25188;DHT22;13141;50.414;8.050;2023-05-07T11:12:55;31.30;95.00
25188;DHT22;13141;50.414;8.050;2023-05-07T11:15:43;31.30;94.00
25188;DHT22;13141;50.414;8.050;2023-05-07T11:18:11;31.50;93.40
25188;DHT22;13141;50.414;8.050;2023-05-07T11:20:50;31.50;93.30
25188;DHT22;13141;50.414;8.050;2023-05-07T11:23:56;31.50;93.10
25188;DHT22;13141;50.414;8.050;2023-05-07T11:26:22;31.40;93.00
25188;DHT22;13141;50.414;8.050;2023-05-07T11:28:48;31.30;93.30
25188;DHT22;13141;50.414;8.050;2023-05-07T11:31:21;31.40;93.30
25188;DHT22;13141;50.414;8.050;2023-05-07T11:33:48;31.30;91.60
25188;DHT22;13141;50.414;8.050;2023-05-07T11:36:16;31.50;92.70
25188;DHT22;13141;50.414;8.050;2023-05-07T11:38:41;31.30;92.80
25188;DHT22;13141;50.414;8.050;2023-05-07T11:41:07;31.50;91.80
25188;DHT22;13141;50.414;8.050;2023-05-07T11:43:34;31.40;92.10
25188;DHT22;13141;50.414;8.050;2023-05-07T11:46:05;31.70;93.40
25188;DHT22;13141;50.414;8.050;2023-05-07T11:48:32;31.80;92.00
25188;DHT22;13141;50.414;8.050;2023-05-07T11:51:02;31.70;91.70
25188;DHT22;13141;50.414;8.050;2023-05-07T11:53:37;31.60;91.70
25188;DHT22;13141;50.414;8.050;2023-05-07T11:56:06;31.50;92.30
25188;DHT22;13141;50.414;8.050;2023-05-07T11:58:32;31.30;91.30
25188;DHT22;13141;50.414;8.050;2023-05-07T12:00:58;31.00;92.30
25188;DHT22;13141;50.414;8.050;2023-05-07T12:03:23;30.70;91.70
25188;DHT22;13141;50.414;8.050;2023-05-07T12:05:49;30.60;91.60
25188;DHT22;13141;50.414;8.050;2023-05-07T12:08:15;30.40;91.50
25188;DHT22;13141;50.414;8.050;2023-05-07T12:10:42;30.40;91.50
25188;DHT22;13141;50.414;8.050;2023-05-07T12:13:14;30.10;92.00
25188;DHT22;13141;50.414;8.050;2023-05-07T12:15:42;30.00;92.00
25188;DHT22;13141;50.414;8.050;2023-05-07T12:18:08;29.90;91.50
25188;DHT22;13141;50.414;8.050;2023-05-07T12:20:34;29.80;91.20
25188;DHT22;13141;50.414;8.050;2023-05-07T12:23:01;29.70;91.70
25188;DHT22;13141;50.414;8.050;2023-05-07T12:25:30;29.40;92.40
25188;DHT22;13141;50.414;8.050;2023-05-07T12:27:57;29.20;92.10
25188;DHT22;13141;50.414;8.050;2023-05-07T12:30:23;29.00;92.30
25188;DHT22;13141;50.414;8.050;2023-05-07T12:32:52;29.00;92.00
25188;DHT22;13141;50.414;8.050;2023-05-07T12:35:26;29.00;92.70
25188;DHT22;13141;50.414;8.050;2023-05-07T12:37:55;29.00;92.60
25188;DHT22;13141;50.414;8.050;2023-05-07T12:40:21;28.90;92.80
25188;DHT22;13141;50.414;8.050;2023-05-07T12:42:46;28.80;92.50
25188;DHT22;13141;50.414;8.050;2023-05-07T12:45:19;29.00;93.20
25188;DHT22;13141;50.414;8.050;2023-05-07T12:47:45;29.20;93.00
25188;DHT22;13141;50.414;8.050;2023-05-07T12:50:10;29.30;91.50
25188;DHT22;13141;50.414;8.050;2023-05-07T12:52:37;29.30;92.40
25188;DHT22;13141;50.414;8.050;2023-05-07T12:55:07;29.60;92.10
25188;DHT22;13141;50.414;8.050;2023-05-07T12:57:38;29.90;92.30
25188;DHT22;13141;50.414;8.050;2023-05-07T13:00:05;30.00;91.90
25188;DHT22;13141;50.414;8.050;2023-05-07T13:02:34;30.30;91.90
25188;DHT22;13141;50.414;8.050;2023-05-07T13:04:59;30.40;92.40
25188;DHT22;13141;50.414;8.050;2023-05-07T13:07:25;30.50;92.20
25188;DHT22;13141;50.414;8.050;2023-05-07T13:09:51;30.60;92.10
25188;DHT22;13141;50.414;8.050;2023-05-07T13:12:16;30.80;91.00
25188;DHT22;13141;50.414;8.050;2023-05-07T13:14:42;31.00;89.90
25188;DHT22;13141;50.414;8.050;2023-05-07T13:17:07;31.40;91.00
25188;DHT22;13141;50.414;8.050;2023-05-07T13:19:35;31.80;90.50
25188;DHT22;13141;50.414;8.050;2023-05-07T13:22:00;32.10;89.70
25188;DHT22;13141;50.414;8.050;2023-05-07T13:24:26;32.20;90.30
25188;DHT22;13141;50.414;8.050;2023-05-07T13:26:51;32.60;88.90
25188;DHT22;13141;50.414;8.050;2023-05-07T13:29:17;32.90;90.00
25188;DHT22;13141;50.414;8.050;2023-05-07T13:31:43;33.40;90.40
25188;DHT22;13141;50.414;8.050;2023-05-07T13:34:09;33.60;86.10
25188;DHT22;13141;50.414;8.050;2023-05-07T13:36:36;33.70;84.20
25188;DHT22;13141;50.414;8.050;2023-05-07T13:39:02;33.80;85.10
25188;DHT22;13141;50.414;8.050;2023-05-07T13:41:28;33.80;83.40
25188;DHT22;13141;50.414;8.050;2023-05-07T13:43:54;33.60;81.40
25188;DHT22;13141;50.414;8.050;2023-05-07T13:46:20;33.40;81.40
25188;DHT22;13141;50.414;8.050;2023-05-07T13:48:46;33.60;85.40
25188;DHT22;13141;50.414;8.050;2023-05-07T13:51:11;33.80;81.00
25188;DHT22;13141;50.414;8.050;2023-05-07T13:53:39;33.90;82.80
25188;DHT22;13141;50.414;8.050;2023-05-07T13:56:05;33.80;78.70
25188;DHT22;13141;50.414;8.050;2023-05-07T13:58:31;33.70;78.30
25188;DHT22;13141;50.414;8.050;2023-05-07T14:00:57;33.90;79.20
25188;DHT22;13141;50.414;8.050;2023-05-07T14:03:23;34.00;77.30
25188;DHT22;13141;50.414;8.050;2023-05-07T14:05:49;34.10;78.60
25188;DHT22;13141;50.414;8.050;2023-05-07T14:08:14;34.30;78.40
25188;DHT22;13141;50.414;8.050;2023-05-07T14:10:42;34.30;77.20
25188;DHT22;13141;50.414;8.050;2023-05-07T14:13:08;34.50;74.40
25188;DHT22;13141;50.414;8.050;2023-05-07T14:15:35;34.50;75.30
25188;DHT22;13141;50.414;8.050;2023-05-07T14:18:01;34.40;76.50
25188;DHT22;13141;50.414;8.050;2023-05-07T14:20:26;34.30;76.60
25188;DHT22;13141;50.414;8.050;2023-05-07T14:22:52;34.30;75.50
25188;DHT22;13141;50.414;8.050;2023-05-07T14:25:18;34.30;73.00
25188;DHT22;13141;50.414;8.050;2023-05-07T14:27:45;34.30;71.70
25188;DHT22;13141;50.414;8.050;2023-05-07T14:30:12;34.20;72.20
25188;DHT22;13141;50.414;8.050;2023-05-07T14:32:38;34.10;73.80
25188;DHT22;13141;50.414;8.050;2023-05-07T14:35:04;34.10;71.70
25188;DHT22;13141;50.414;8.050;2023-05-07T14:37:30;34.10;66.60
25188;DHT22;13141;50.414;8.050;2023-05-07T14:39:56;34.20;72.80
25188;DHT22;13141;50.414;8.050;2023-05-07T14:42:22;33.80;70.10
25188;DHT22;13141;50.414;8.050;2023-05-07T14:44:49;33.30;69.50
25188;DHT22;13141;50.414;8.050;2023-05-07T14:47:15;33.10;69.50
25188;DHT22;13141;50.414;8.050;2023-05-07T14:49:41;33.10;71.50
25188;DHT22;13141;50.414;8.050;2023-05-07T14:52:07;33.40;72.80
25188;DHT22;13141;50.414;8.050;2023-05-07T14:54:33;33.50;69.60
25188;DHT22;13141;50.414;8.050;2023-05-07T14:57:00;33.40;70.50
25188;DHT22;13141;50.414;8.050;2023-05-07T14:59:25;32.80;68.80
25188;DHT22;13141;50.414;8.050;2023-05-07T15:01:54;32.20;70.20
25188;DHT22;13141;50.414;8.050;2023-05-07T15:04:20;31.70;70.60
25188;DHT22;13141;50.414;8.050;2023-05-07T15:06:46;31.40;71.10
25188;DHT22;13141;50.414;8.050;2023-05-07T15:09:11;31.10;72.10
25188;DHT22;13141;50.414;8.050;2023-05-07T15:11:37;30.80;71.30
25188;DHT22;13141;50.414;8.050;2023-05-07T15:14:04;30.70;71.80
25188;DHT22;13141;50.414;8.050;2023-05-07T15:16:32;30.50;72.40
25188;DHT22;13141;50.414;8.050;2023-05-07T15:18:59;30.30;72.10
25188;DHT22;13141;50.414;8.050;2023-05-07T15:21:25;30.10;72.50
25188;DHT22;13141;50.414;8.050;2023-05-07T15:23:51;29.80;71.20
25188;DHT22;13141;50.414;8.050;2023-05-07T15:26:17;29.50;73.50
25188;DHT22;13141;50.414;8.050;2023-05-07T15:28:42;29.30;75.40
25188;DHT22;13141;50.414;8.050;2023-05-07T15:31:08;29.20;75.40
25188;DHT22;13141;50.414;8.050;2023-05-07T15:33:34;29.20;76.60
25188;DHT22;13141;50.414;8.050;2023-05-07T15:36:01;29.10;76.80
25188;DHT22;13141;50.414;8.050;2023-05-07T15:38:27;29.10;77.10
25188;DHT22;13141;50.414;8.050;2023-05-07T15:40:53;29.40;79.40
25188;DHT22;13141;50.414;8.050;2023-05-07T15:43:18;29.50;77.40
25188;DHT22;13141;50.414;8.050;2023-05-07T15:45:44;29.70;77.10
25188;DHT22;13141;50.414;8.050;2023-05-07T15:48:10;29.80;75.00
25188;DHT22;13141;50.414;8.050;2023-05-07T15:50:36;29.90;77.00
25188;DHT22;13141;50.414;8.050;2023-05-07T15:53:04;29.90;77.40